createdAt,value
2022-12-18T00:01:30.362Z,102059.56
2022-12-18T00:03:59.416Z,102062.16
2022-12-18T00:06:30.706Z,102067.06
2022-12-18T00:09:01.879Z,102070.09
2022-12-18T00:11:33.007Z,102065.59
2022-12-18T00:14:02.593Z,102067.63
2022-12-18T00:16:34.165Z,102066.91
2022-12-18T00:19:03.301Z,102069.41
2022-12-18T00:21:33.745Z,102076.59
2022-12-18T00:24:03.729Z,102081.44
2022-12-18T00:26:35.071Z,102082.97
2022-12-18T00:29:06.960Z,102079.25
2022-12-18T00:31:36.617Z,102083.53
2022-12-18T00:34:05.903Z,102084.50
2022-12-18T00:36:36.540Z,102076.53
2022-12-18T00:39:07.543Z,102080.16
2022-12-18T00:41:53.651Z,102082.44
2022-12-18T00:44:22.516Z,102077.25
2022-12-18T00:46:51.270Z,102080.16
2022-12-18T00:49:21.577Z,102074.53
2022-12-18T00:51:50.957Z,102066.47
2022-12-18T00:54:21.000Z,102075.13
2022-12-18T00:56:50.102Z,102069.44
2022-12-18T00:59:20.175Z,102073.31
2022-12-18T01:01:49.408Z,102074.78
2022-12-18T01:04:18.261Z,102075.25
2022-12-18T01:06:47.671Z,102079.81
2022-12-18T01:09:16.514Z,102081.50
2022-12-18T01:11:46.834Z,102070.59
2022-12-18T01:14:15.507Z,102077.41
2022-12-18T01:16:44.162Z,102072.47
2022-12-18T01:19:13.713Z,102084.03
2022-12-18T01:21:42.431Z,102093.25
2022-12-18T01:24:14.721Z,102095.16
2022-12-18T01:26:45.450Z,102095.03
2022-12-18T01:29:16.444Z,102091.81
2022-12-18T01:31:44.976Z,102087.88
2022-12-18T01:34:13.510Z,102089.56
2022-12-18T01:36:42.988Z,102092.66
2022-12-18T01:39:14.594Z,102091.06
2022-12-18T01:42:03.820Z,102096.22
2022-12-18T01:44:59.765Z,102093.38
2022-12-18T01:47:46.271Z,102098.59
2022-12-18T01:50:18.379Z,102092.41
2022-12-18T01:52:49.788Z,102093.69
2022-12-18T01:55:21.719Z,102079.19
2022-12-18T01:57:54.369Z,102084.81
2022-12-18T02:00:25.536Z,102083.84
2022-12-18T02:02:55.293Z,102090.41
2022-12-18T02:05:34.829Z,102084.47
2022-12-18T02:08:12.914Z,102087.34
2022-12-18T02:10:50.792Z,102088.47
2022-12-18T02:13:35.408Z,102081.69
2022-12-18T02:16:14.415Z,102093.34
2022-12-18T02:18:47.683Z,102099.44
2022-12-18T02:21:27.854Z,102100.28
2022-12-18T02:24:08.685Z,102102.25
2022-12-18T02:26:44.283Z,102116.25
2022-12-18T02:29:18.804Z,102117.56
2022-12-18T02:31:53.242Z,102118.69
2022-12-18T02:34:24.691Z,102118.31
2022-12-18T02:36:55.702Z,102116.44
2022-12-18T02:39:26.086Z,102117.41
2022-12-18T02:42:09.032Z,102111.28
2022-12-18T02:44:45.731Z,102102.03
2022-12-18T02:47:19.550Z,102099.34
2022-12-18T02:50:00.357Z,102107.72
2022-12-18T02:52:41.492Z,102113.63
2022-12-18T02:55:23.621Z,102108.78
2022-12-18T02:58:01.651Z,102105.59
2022-12-18T03:00:41.817Z,102104.38
2022-12-18T03:03:16.781Z,102101.16
2022-12-18T03:05:52.861Z,102104.94
2022-12-18T03:08:24.236Z,102106.78
2022-12-18T03:10:58.210Z,102105.72
2022-12-18T03:13:34.470Z,102118.06
2022-12-18T03:16:07.887Z,102110.13
2022-12-18T03:18:41.305Z,102113.56
2022-12-18T03:21:13.218Z,102111.13
2022-12-18T03:23:47.119Z,102108.56
2022-12-18T03:26:21.423Z,102107.00
2022-12-18T03:29:00.013Z,102111.25
2022-12-18T03:31:32.010Z,102107.59
2022-12-18T03:34:09.577Z,102106.69
2022-12-18T03:36:43.956Z,102109.53
2022-12-18T03:39:13.495Z,102115.19
2022-12-18T03:41:49.950Z,102110.78
2022-12-18T03:44:38.813Z,102108.94
2022-12-18T03:47:12.646Z,102107.41
2022-12-18T03:49:48.844Z,102108.47
2022-12-18T03:52:25.553Z,102115.63
2022-12-18T03:54:56.452Z,102105.34
2022-12-18T03:57:32.582Z,102113.94
2022-12-18T04:00:04.606Z,102121.81
2022-12-18T04:02:46.522Z,102125.31
2022-12-18T04:05:22.340Z,102120.69
2022-12-18T04:07:52.442Z,102124.06
2022-12-18T04:10:28.265Z,102125.75
2022-12-18T04:12:59.551Z,102118.22
2022-12-18T04:15:36.121Z,102123.06
2022-12-18T04:18:06.531Z,102117.19
2022-12-18T04:20:44.809Z,102120.09
2022-12-18T04:23:14.224Z,102129.81
2022-12-18T04:25:45.172Z,102129.66
2022-12-18T04:28:22.087Z,102132.59
2022-12-18T04:30:55.571Z,102132.25
2022-12-18T04:33:24.869Z,102126.47
2022-12-18T04:35:53.870Z,102129.53
2022-12-18T04:38:22.946Z,102121.53
2022-12-18T04:40:59.228Z,102128.97
2022-12-18T04:43:29.571Z,102136.44
2022-12-18T04:46:06.135Z,102137.97
2022-12-18T04:48:35.402Z,102145.91
2022-12-18T04:51:05.259Z,102145.81
2022-12-18T04:53:34.906Z,102150.66
2022-12-18T04:56:08.648Z,102142.75
2022-12-18T04:58:41.930Z,102136.88
2022-12-18T05:01:13.241Z,102146.66
2022-12-18T05:03:43.053Z,102145.78
2022-12-18T05:06:12.826Z,102135.44
2022-12-18T05:08:50.461Z,102151.19
2022-12-18T05:11:21.637Z,102143.19
2022-12-18T05:13:50.589Z,102145.59
2022-12-18T05:16:21.015Z,102146.06
2022-12-18T05:18:54.778Z,102147.63
2022-12-18T05:21:26.555Z,102142.00
2022-12-18T05:23:55.654Z,102140.03
2022-12-18T05:26:27.451Z,102135.19
2022-12-18T05:28:56.882Z,102141.22
2022-12-18T05:31:27.124Z,102142.63
2022-12-18T05:33:58.741Z,102142.16
2022-12-18T05:36:27.731Z,102144.25
2022-12-18T05:38:56.982Z,102141.31
2022-12-18T05:41:26.052Z,102139.78
2022-12-18T05:43:57.663Z,102141.72
2022-12-18T05:46:30.987Z,102143.31
2022-12-18T05:49:04.954Z,102140.84
2022-12-18T05:51:36.999Z,102135.00
2022-12-18T05:54:05.980Z,102137.31
2022-12-18T05:56:38.003Z,102143.88
2022-12-18T05:59:12.988Z,102149.03
2022-12-18T06:01:46.809Z,102147.44
2022-12-18T06:04:18.533Z,102144.19
2022-12-18T06:06:50.116Z,102156.69
2022-12-18T06:09:22.274Z,102154.69
2022-12-18T06:11:51.273Z,102159.09
2022-12-18T06:14:22.876Z,102155.63
2022-12-18T06:16:55.675Z,102166.53
2022-12-18T06:19:27.545Z,102159.63
2022-12-18T06:21:59.014Z,102163.25
2022-12-18T06:24:34.470Z,102161.63
2022-12-18T06:27:06.501Z,102156.91
2022-12-18T06:29:35.553Z,102155.38
2022-12-18T06:32:06.298Z,102152.47
2022-12-18T06:34:35.399Z,102162.31
2022-12-18T06:37:04.201Z,102167.22
2022-12-18T06:39:35.742Z,102159.38
2022-12-18T06:42:07.818Z,102164.53
2022-12-18T06:44:39.420Z,102168.09
2022-12-18T06:47:12.480Z,102164.69
2022-12-18T06:49:41.147Z,102169.69
2022-12-18T06:52:10.065Z,102165.16
2022-12-18T06:54:39.170Z,102185.72
2022-12-18T06:57:07.883Z,102181.25
2022-12-18T06:59:42.294Z,102183.06
2022-12-18T07:02:17.748Z,102187.59
2022-12-18T07:04:46.792Z,102184.56
2022-12-18T07:07:18.657Z,102191.88
2022-12-18T07:09:47.394Z,102191.47
2022-12-18T07:12:15.815Z,102191.47
2022-12-18T07:14:44.422Z,102188.09
2022-12-18T07:17:14.697Z,102191.03
2022-12-18T07:19:43.108Z,102192.75
2022-12-18T07:22:11.573Z,102195.56
2022-12-18T07:24:40.171Z,102201.06
2022-12-18T07:27:08.755Z,102196.41
2022-12-18T07:29:39.098Z,102206.34
2022-12-18T07:32:08.254Z,102198.47
2022-12-18T07:34:38.750Z,102211.69
2022-12-18T07:37:07.589Z,102211.63
2022-12-18T07:39:36.215Z,102205.41
2022-12-18T07:42:22.420Z,102204.06
2022-12-18T07:44:51.935Z,102200.00
2022-12-18T07:47:20.654Z,102192.75
2022-12-18T07:49:51.199Z,102198.41
2022-12-18T07:52:24.299Z,102198.50
2022-12-18T07:54:54.594Z,102190.63
2022-12-18T07:57:48.809Z,102183.94
2022-12-18T08:00:13.487Z,102182.41
2022-12-18T08:02:42.411Z,102182.69
2022-12-18T08:05:13.449Z,102192.75
2022-12-18T08:07:42.224Z,102179.84
2022-12-18T08:10:11.228Z,102177.69
2022-12-18T08:12:39.749Z,102189.63
2022-12-18T08:15:09.484Z,102182.75
2022-12-18T08:17:38.093Z,102180.63
2022-12-18T08:20:07.054Z,102178.19
2022-12-18T08:22:40.369Z,102177.78
2022-12-18T08:25:10.182Z,102181.47
2022-12-18T08:27:38.633Z,102186.84
2022-12-18T08:30:08.574Z,102176.50
2022-12-18T08:32:37.653Z,102178.16
2022-12-18T08:35:09.220Z,102184.25
2022-12-18T08:37:40.690Z,102182.09
2022-12-18T08:40:11.434Z,102183.97
2022-12-18T08:42:57.471Z,102185.13
2022-12-18T08:45:27.784Z,102181.94
2022-12-18T08:47:56.938Z,102182.53
2022-12-18T08:50:25.971Z,102177.66
2022-12-18T08:52:57.139Z,102182.56
2022-12-18T08:55:26.315Z,102187.91
2022-12-18T08:57:55.132Z,102186.81
2022-12-18T09:00:24.526Z,102185.69
2022-12-18T09:02:53.541Z,102188.78
2022-12-18T09:05:22.506Z,102185.56
2022-12-18T09:07:51.430Z,102190.25
2022-12-18T09:10:21.522Z,102180.41
2022-12-18T09:12:51.077Z,102179.66
2022-12-18T09:15:19.718Z,102176.84
2022-12-18T09:17:54.074Z,102179.50
2022-12-18T09:20:22.784Z,102172.03
2022-12-18T09:22:51.264Z,102175.22
2022-12-18T09:25:21.578Z,102179.53
2022-12-18T09:27:53.882Z,102174.59
2022-12-18T09:30:22.530Z,102173.63
2022-12-18T09:32:51.250Z,102170.34
2022-12-18T09:35:19.892Z,102163.09
2022-12-18T09:37:48.551Z,102172.19
2022-12-18T09:40:18.723Z,102166.53
2022-12-18T09:42:55.693Z,102168.63
2022-12-18T09:45:26.093Z,102170.47
2022-12-18T09:47:57.872Z,102161.59
2022-12-18T09:50:33.477Z,102170.53
2022-12-18T09:53:09.095Z,102176.78
2022-12-18T09:55:42.055Z,102168.44
2022-12-18T09:58:22.903Z,102159.66
2022-12-18T10:00:54.942Z,102154.31
2022-12-18T10:03:24.312Z,102156.31
2022-12-18T10:06:03.884Z,102160.19
2022-12-18T10:08:41.037Z,102155.41
2022-12-18T10:11:30.910Z,102157.78
2022-12-18T10:14:09.697Z,102150.94
2022-12-18T10:16:50.117Z,102144.34
2022-12-18T10:19:28.545Z,102143.34
2022-12-18T10:22:06.381Z,102149.69
2022-12-18T10:24:44.816Z,102140.03
2022-12-18T10:27:17.456Z,102148.03
2022-12-18T10:29:48.819Z,102138.06
2022-12-18T10:32:19.600Z,102135.44
2022-12-18T10:34:49.457Z,102123.06
2022-12-18T10:37:21.016Z,102122.69
2022-12-18T10:40:06.997Z,102121.44
2022-12-18T10:42:35.582Z,102123.50
2022-12-18T10:45:11.105Z,102114.34
2022-12-18T10:47:45.904Z,102123.31
2022-12-18T10:51:01.765Z,102120.94
2022-12-18T10:53:25.562Z,102115.91
2022-12-18T10:55:56.180Z,102120.47
2022-12-18T10:58:27.474Z,102116.34
2022-12-18T11:01:22.635Z,102121.63
2022-12-18T11:04:04.404Z,102120.00
2022-12-18T11:06:33.095Z,102118.50
2022-12-18T11:09:10.996Z,102128.97
2022-12-18T11:11:42.050Z,102126.56
2022-12-18T11:14:20.682Z,102122.41
2022-12-18T11:19:43.547Z,102113.78
2022-12-18T11:22:22.954Z,102109.63
2022-12-18T11:25:30.234Z,102109.69
2022-12-18T11:27:52.179Z,102103.75
2022-12-18T11:30:26.858Z,102100.31
2022-12-18T11:33:01.057Z,102098.63
2022-12-18T11:35:42.291Z,102108.38
2022-12-18T11:38:21.371Z,102105.84
2022-12-18T11:40:57.622Z,102105.91
2022-12-18T11:43:31.301Z,102104.19
2022-12-18T11:46:06.289Z,102095.53
2022-12-18T11:48:44.080Z,102101.69
2022-12-18T11:51:19.139Z,102108.72
2022-12-18T11:53:47.880Z,102114.78
2022-12-18T11:56:32.341Z,102113.94
2022-12-18T11:59:12.142Z,102111.41
2022-12-18T12:01:51.172Z,102108.03
2022-12-18T12:04:50.698Z,102112.41
2022-12-18T12:07:36.115Z,102109.94
2022-12-18T12:10:17.119Z,102106.47
2022-12-18T12:12:55.179Z,102114.34
2022-12-18T12:15:36.983Z,102116.19
2022-12-18T12:18:16.509Z,102106.66
2022-12-18T12:20:56.515Z,102111.03
2022-12-18T12:23:37.466Z,102102.34
2022-12-18T12:26:08.886Z,102114.59
2022-12-18T12:28:51.981Z,102109.34
2022-12-18T12:31:32.488Z,102105.91
2022-12-18T12:34:12.410Z,102115.50
2022-12-18T12:36:52.654Z,102112.88
2022-12-18T12:39:26.062Z,102116.41
2022-12-18T12:42:12.243Z,102118.16
2022-12-18T12:44:45.534Z,102118.97
2022-12-18T12:47:21.996Z,102117.22
2022-12-18T12:49:52.002Z,102123.31
2022-12-18T12:52:30.796Z,102123.31
2022-12-18T12:55:00.811Z,102121.56
2022-12-18T12:57:37.476Z,102116.28
2022-12-18T13:00:10.811Z,102111.94
2022-12-18T13:02:49.994Z,102109.28
2022-12-18T13:05:25.413Z,102107.56
2022-12-18T13:08:01.136Z,102099.69
2022-12-18T13:10:35.677Z,102106.63
2022-12-18T13:13:08.937Z,102104.91
2022-12-18T13:15:42.185Z,102096.16
2022-12-18T13:18:18.270Z,102091.75
2022-12-18T13:20:53.637Z,102096.94
2022-12-18T13:23:41.886Z,102106.50
2022-12-18T13:26:41.320Z,102095.19
2022-12-18T13:29:10.031Z,102098.63
2022-12-18T13:32:21.435Z,102105.59
2022-12-18T13:34:52.076Z,102096.84
2022-12-18T13:37:43.212Z,102100.41
2022-12-18T13:41:00.672Z,102090.91
2022-12-18T13:43:45.149Z,102085.84
2022-12-18T13:46:22.909Z,102084.16
2022-12-18T13:48:59.075Z,102081.56
2022-12-18T13:51:28.936Z,102083.28
2022-12-18T13:54:00.932Z,102090.25
2022-12-18T13:56:32.470Z,102084.16
2022-12-18T13:59:23.269Z,102089.41
2022-12-18T14:01:56.201Z,102092.00
2022-12-18T14:04:30.587Z,102096.34
2022-12-18T14:07:06.129Z,102093.69
2022-12-18T14:09:38.895Z,102093.69
2022-12-18T14:12:34.568Z,102090.25
2022-12-18T14:15:05.051Z,102097.22
2022-12-18T14:17:34.287Z,102098.06
2022-12-18T14:20:03.851Z,102097.25
2022-12-18T14:22:33.393Z,102085.03
2022-12-18T14:25:18.103Z,102085.06
2022-12-18T14:27:48.413Z,102085.94
2022-12-18T14:30:30.627Z,102076.34
2022-12-18T14:33:07.090Z,102073.72
2022-12-18T14:35:37.211Z,102072.84
2022-12-18T14:38:22.506Z,102060.63
2022-12-18T14:40:55.192Z,102065.88
2022-12-18T14:43:24.385Z,102068.47
2022-12-18T14:45:54.908Z,102064.09
2022-12-18T14:48:32.878Z,102060.63
2022-12-18T14:51:03.925Z,102052.72
2022-12-18T14:53:38.120Z,102043.09
2022-12-18T14:56:17.001Z,102046.56
2022-12-18T14:58:51.240Z,102057.06
2022-12-18T15:01:28.884Z,102053.59
2022-12-18T15:03:58.793Z,102049.19
2022-12-18T15:06:31.408Z,102045.63
2022-12-18T15:09:00.997Z,102048.25
2022-12-18T15:11:35.013Z,102049.06
2022-12-18T15:14:33.616Z,102051.72
2022-12-18T15:17:07.677Z,102036.78
2022-12-18T15:19:42.879Z,102047.25
2022-12-18T15:22:22.143Z,102056.94
2022-12-18T15:24:51.311Z,102052.63
2022-12-18T15:27:27.699Z,102056.97
2022-12-18T15:30:19.649Z,102049.94
2022-12-18T15:32:51.697Z,102051.69
2022-12-18T15:35:23.060Z,102052.56
2022-12-18T15:37:52.799Z,102045.56
2022-12-18T15:40:23.518Z,102035.91
2022-12-18T15:43:13.153Z,102042.75
2022-12-18T15:45:41.973Z,102033.94
2022-12-18T15:48:21.926Z,102028.53
2022-12-18T15:50:51.445Z,102028.47
2022-12-18T15:53:20.477Z,102030.19
2022-12-18T15:56:06.215Z,102027.44
2022-12-18T15:58:35.130Z,102022.09
2022-12-18T16:01:04.794Z,102028.25
2022-12-18T16:03:35.057Z,102022.06
2022-12-18T16:06:04.135Z,102023.72
2022-12-18T16:08:33.502Z,102013.00
2022-12-18T16:11:02.717Z,102019.03
2022-12-18T16:13:31.177Z,102012.78
2022-12-18T16:16:00.325Z,102010.16
2022-12-18T16:18:29.244Z,102007.56
2022-12-18T16:21:00.580Z,102011.91
2022-12-18T16:23:29.686Z,102010.13
2022-12-18T16:25:58.069Z,102016.22
2022-12-18T16:28:26.603Z,102012.72
2022-12-18T16:30:55.255Z,102009.94
2022-12-18T16:33:23.868Z,102009.06
2022-12-18T16:35:54.684Z,102009.94
2022-12-18T16:38:25.180Z,102009.84
2022-12-18T16:41:11.059Z,102000.91
2022-12-18T16:43:40.171Z,102004.41
2022-12-18T16:46:09.292Z,102004.41
2022-12-18T16:48:38.778Z,102016.75
2022-12-18T16:51:07.759Z,101999.97
2022-12-18T16:53:38.551Z,102005.25
2022-12-18T16:56:07.495Z,102013.06
2022-12-18T16:58:36.511Z,102006.88
2022-12-18T17:01:11.031Z,102000.81
2022-12-18T17:03:40.122Z,102000.81
2022-12-18T17:06:09.461Z,102003.44
2022-12-18T17:08:40.862Z,101998.09
2022-12-18T17:11:09.583Z,101998.97
2022-12-18T17:13:39.008Z,101993.69
2022-12-18T17:16:09.438Z,102000.75
2022-12-18T17:18:38.324Z,102006.88
2022-12-18T17:21:09.732Z,102005.16
2022-12-18T17:23:40.605Z,101998.09
2022-12-18T17:26:11.183Z,102002.50
2022-12-18T17:28:41.502Z,102007.72
2022-12-18T17:31:15.674Z,102006.00
2022-12-18T17:33:44.578Z,101997.25
2022-12-18T17:36:14.647Z,101999.03
2022-12-18T17:38:52.539Z,102001.59
2022-12-18T17:41:22.146Z,101989.25
2022-12-18T17:43:54.090Z,101997.09
2022-12-18T17:46:24.169Z,101983.09
2022-12-18T17:48:53.750Z,101993.59
2022-12-18T17:51:24.558Z,101992.63
2022-12-18T17:53:57.579Z,101988.19
2022-12-18T17:56:27.800Z,101981.97
2022-12-18T17:58:56.658Z,101978.34
2022-12-18T18:01:27.736Z,101965.91
2022-12-18T18:03:57.362Z,101958.72
2022-12-18T18:06:26.210Z,101956.09
2022-12-18T18:08:57.838Z,101961.34
2022-12-18T18:11:44.418Z,101956.06
2022-12-18T18:14:21.217Z,101964.84
2022-12-18T18:16:52.458Z,101968.34
2022-12-18T18:19:22.218Z,101951.59
2022-12-18T18:21:53.000Z,101938.28
2022-12-18T18:24:24.362Z,101947.72
2022-12-18T18:26:53.560Z,101949.47
2022-12-18T18:29:25.391Z,101942.28
2022-12-18T18:31:55.715Z,101942.22
2022-12-18T18:34:26.560Z,101951.69
2022-12-18T18:36:55.218Z,101949.09
2022-12-18T18:39:25.625Z,101950.91
2022-12-18T18:41:54.750Z,101944.75
2022-12-18T18:44:26.326Z,101942.94
2022-12-18T18:46:56.960Z,101948.34
2022-12-18T18:49:28.168Z,101946.56
2022-12-18T18:51:59.455Z,101951.78
2022-12-18T18:54:31.373Z,101943.00
2022-12-18T18:59:50.964Z,101957.03
2022-12-18T19:02:19.718Z,101954.38
2022-12-18T19:04:51.561Z,101957.03
2022-12-18T19:07:30.188Z,101955.19
2022-12-18T19:10:05.254Z,101953.41
2022-12-18T19:12:53.221Z,101957.03
2022-12-18T19:15:23.584Z,101948.31
2022-12-18T19:17:52.208Z,101956.91
2022-12-18T19:20:21.352Z,101946.34
2022-12-18T19:22:55.623Z,101955.97
2022-12-18T19:25:40.376Z,101947.19
2022-12-18T19:28:22.167Z,101949.69
2022-12-18T19:30:58.690Z,101938.81
2022-12-18T19:33:45.026Z,101928.09
2022-12-18T19:36:16.244Z,101928.09
2022-12-18T19:38:45.826Z,101932.28
2022-12-18T19:41:16.990Z,101927.75
2022-12-18T19:43:47.853Z,101934.56
2022-12-18T19:46:19.469Z,101926.47
2022-12-18T19:48:48.712Z,101917.63
2022-12-18T19:51:20.093Z,101914.00
2022-12-18T19:53:50.553Z,101931.50
2022-12-18T19:56:26.237Z,101920.00
2022-12-18T19:58:55.874Z,101922.63
2022-12-18T20:01:26.704Z,101922.63
2022-12-18T20:03:57.631Z,101930.63
2022-12-18T20:06:29.756Z,101940.34
2022-12-18T20:09:00.583Z,101935.00
2022-12-18T20:11:31.776Z,101935.91
2022-12-18T20:14:00.449Z,101942.16
2022-12-18T20:16:29.561Z,101944.88
2022-12-18T20:18:59.931Z,101937.03
2022-12-18T20:21:28.923Z,101938.75
2022-12-18T20:23:59.226Z,101946.66
2022-12-18T20:26:27.958Z,101950.22
2022-12-18T20:28:57.893Z,101941.53
2022-12-18T20:31:26.556Z,101957.50
2022-12-18T20:33:59.655Z,101961.03
2022-12-18T20:36:30.795Z,101957.31
2022-12-18T20:39:02.793Z,101976.69
2022-12-18T20:41:38.197Z,101951.03
2022-12-18T20:44:23.040Z,101947.50
2022-12-18T20:46:55.025Z,101952.78
2022-12-18T20:49:24.022Z,101960.56
2022-12-18T20:51:53.722Z,101950.94
2022-12-18T20:54:22.626Z,101951.59
2022-12-18T20:56:51.504Z,101945.50
2022-12-18T20:59:23.356Z,101952.44
2022-12-18T21:01:52.432Z,101937.28
2022-12-18T21:04:21.139Z,101932.75
2022-12-18T21:06:53.383Z,101932.75
2022-12-18T21:09:30.376Z,101937.78
2022-12-18T21:12:29.727Z,101936.06
2022-12-18T21:15:06.694Z,101938.66
2022-12-18T21:17:41.728Z,101941.25
2022-12-18T21:20:15.709Z,101939.41
2022-12-18T21:22:46.985Z,101933.31
2022-12-18T21:25:15.561Z,101926.09
2022-12-18T21:27:44.007Z,101934.03
2022-12-18T21:30:15.411Z,101933.91
2022-12-18T21:32:44.143Z,101926.66
2022-12-18T21:35:12.622Z,101906.22
2022-12-18T21:37:41.145Z,101916.66
2022-12-18T21:40:10.997Z,101910.38
2022-12-18T21:42:56.880Z,101913.81
2022-12-18T21:45:27.555Z,101904.91
2022-12-18T21:47:56.084Z,101910.00
2022-12-18T21:50:24.654Z,101903.78
2022-12-18T21:52:53.439Z,101896.75
2022-12-18T21:55:21.939Z,101889.47
2022-12-18T21:57:50.561Z,101891.16
2022-12-18T22:00:19.909Z,101895.56
2022-12-18T22:03:17.774Z,101889.25
2022-12-18T22:05:39.054Z,101905.16
2022-12-18T22:08:07.759Z,101913.78
2022-12-18T22:10:36.458Z,101906.69
2022-12-18T22:13:05.570Z,101918.03
2022-12-18T22:15:34.313Z,101906.50
2022-12-18T22:18:04.826Z,101909.13
2022-12-18T22:20:33.442Z,101898.56
2022-12-18T22:23:05.833Z,101917.78
2022-12-18T22:25:35.339Z,101904.44
2022-12-18T22:28:24.984Z,101909.91
2022-12-18T22:30:57.731Z,101908.13
2022-12-18T22:33:30.460Z,101908.06
2022-12-18T22:35:59.171Z,101912.59
2022-12-18T22:38:27.744Z,101909.91
2022-12-18T22:40:56.716Z,101915.19
2022-12-18T22:43:25.715Z,101927.56
2022-12-18T22:45:54.325Z,101908.25
2022-12-18T22:48:23.081Z,101912.66
2022-12-18T22:50:56.278Z,101924.16
2022-12-18T22:53:28.802Z,101919.84
2022-12-18T22:56:02.423Z,101918.09
2022-12-18T22:58:31.039Z,101929.56
2022-12-18T23:00:59.535Z,101932.22
2022-12-18T23:03:28.203Z,101923.47
2022-12-18T23:06:05.977Z,101926.91
2022-12-18T23:08:34.698Z,101918.09
2022-12-18T23:11:03.595Z,101925.16
2022-12-18T23:13:32.196Z,101928.59
2022-12-18T23:16:00.845Z,101926.00
2022-12-18T23:18:29.401Z,101931.34
2022-12-18T23:20:58.026Z,101928.72
2022-12-18T23:23:30.049Z,101922.56
2022-12-18T23:26:03.354Z,101932.28
2022-12-18T23:28:34.196Z,101919.09
2022-12-18T23:31:07.307Z,101919.09
2022-12-18T23:33:36.265Z,101912.94
2022-12-18T23:36:06.336Z,101911.97
2022-12-18T23:38:36.895Z,101913.69
2022-12-18T23:41:10.510Z,101911.88
2022-12-18T23:43:39.460Z,101909.22
2022-12-18T23:46:12.554Z,101898.63
2022-12-18T23:48:41.389Z,101908.25
2022-12-18T23:51:11.196Z,101916.09
2022-12-18T23:53:42.560Z,101916.03
2022-12-18T23:56:12.276Z,101922.97
2022-12-18T23:58:41.076Z,101921.06
